< Cyclone 200411 2005 Season Cyclone 200502 >
Cyclone 200501 (PHOEBE)
General InformationTrack Information on Google MapsDetailed Wind InformationList of All Images || ResourceGoogle EarthGE AnimationAtom FeedGeoJSON
Detalied Best Track (Time Zone = UTC)
Year Month Day Hour Lat. Long. Pressure (hPa) Wind (kt) Class Image Chart
2004 8 30 06 -2.7 87.7 1005 20 2 Image --
2004 8 30 12 -3.0 87.8 1004 25 2 Image --
2004 8 30 18 -3.3 87.8 1002 30 2 Image --
2004 8 31 00 -3.6 87.9 1002 30 2 Image --
2004 8 31 06 -3.9 88.0 1000 35 3 Image --
2004 8 31 12 -4.4 88.7 1000 35 3 Image --
2004 8 31 18 -4.9 89.4 1000 35 3 Image --
2004 9 1 00 -5.2 90.0 1000 35 3 Image --
2004 9 1 06 -5.4 90.4 998 35 3 Image --
2004 9 1 12 -6.1 90.5 998 35 3 Image --
2004 9 1 18 -7.0 90.8 995 35 3 Image --
2004 9 2 00 -7.9 91.2 992 35 3 Image --
2004 9 2 06 -8.2 91.7 992 40 3 Image --
2004 9 2 12 -8.8 91.8 990 45 3 Image --
2004 9 2 18 -8.9 92.3 990 45 3 Image --
2004 9 3 00 -9.0 92.8 990 45 3 Image --
2004 9 3 06 -9.3 92.9 992 40 3 Image --
2004 9 3 12 -9.4 93.0 992 40 3 Image --
2004 9 3 18 -9.4 93.1 992 40 3 Image --
2004 9 4 00 -9.5 93.2 992 35 3 Image --
2004 9 4 06 -9.7 92.9 995 35 3 Image --
2004 9 4 12 -9.6 92.7 998 30 2 Image --
2004 9 4 18 -9.5 92.6 998 30 2 Image --
2004 9 5 00 -9.4 92.5 998 30 2 Image --
2004 9 5 06 -9.6 92.3 1000 25 2 Image --
2004 9 5 12 -9.8 91.7 1000 25 2 Image --
< Cyclone 200411 2005 Season Cyclone 200502 >

Help